Time;durP1;ratioP1;P1;durP2;ratioP2;P2;SDS_P1;SDS_P2;PMS_P1;PMS_P2;Temp;Humidity;BMP_temperature;BMP_pressure;BME280_temperature;BME280_humidity;BME280_pressure;Samples;Min_cycle;Max_cycle;Signal;HPM_P1;HPM_P2
2023/10/17 00:01:48;;;;;;;0.30;0.20;;;;;;;6.51;94.15;100544.97;4996342;28;20469;-51
2023/10/17 00:06:58;;;;;;;0.30;0.20;;;;;;;6.41;93.79;100540.63;4995880;28;20878;-51
2023/10/17 00:09:25;;;;;;;0.30;0.20;;;;;;;6.26;93.93;100544.25;4996004;28;20976;-51
2023/10/17 00:14:34;;;;;;;0.30;0.20;;;;;;;6.16;93.76;100554.00;4995815;28;20516;-51
2023/10/17 00:17:06;;;;;;;0.30;0.20;;;;;;;6.16;94.11;100555.75;4984937;28;20451;-50
2023/10/17 00:19:32;;;;;;;0.30;0.20;;;;;;;5.95;93.87;100556.78;4995474;28;20954;-50
2023/10/17 00:22:02;;;;;;;0.30;0.20;;;;;;;5.91;94.60;100558.56;4985470;28;20473;-51
2023/10/17 00:24:29;;;;;;;0.30;0.20;;;;;;;5.77;93.65;100554.22;4995602;28;20485;-51
2023/10/17 00:26:57;;;;;;;0.30;0.20;;;;;;;5.80;94.04;100544.53;4995569;28;20547;-51
2023/10/17 00:29:23;;;;;;;0.30;0.20;;;;;;;5.82;94.29;100540.09;4995714;28;20477;-51
2023/10/17 00:31:50;;;;;;;0.30;0.20;;;;;;;5.71;93.73;100538.41;4995271;28;20473;-51
2023/10/17 00:34:16;;;;;;;0.30;0.20;;;;;;;5.79;93.87;100532.22;4995523;28;20941;-51
2023/10/17 00:36:49;;;;;;;0.30;0.20;;;;;;;5.84;94.79;100534.81;4995499;28;20528;-50
2023/10/17 00:39:29;;;;;;;0.30;0.20;;;;;;;5.85;95.15;100537.44;4995281;28;20617;-50
2023/10/17 00:44:40;;;;;;;0.30;0.20;;;;;;;6.12;94.85;100535.56;4983720;28;20822;-51
2023/10/17 00:47:21;;;;;;;0.30;0.20;;;;;;;6.12;94.96;100525.88;4995229;28;20488;-51
2023/10/17 00:49:50;;;;;;;0.30;0.20;;;;;;;6.26;95.77;100514.34;4994947;28;20968;-51
2023/10/17 00:52:29;;;;;;;0.30;0.20;;;;;;;6.26;95.98;100514.34;4994744;28;20473;-51
2023/10/17 00:54:57;;;;;;;0.30;0.20;;;;;;;6.19;95.21;100506.50;4995162;28;20523;-51
2023/10/17 00:57:29;;;;;;;0.30;0.20;;;;;;;6.27;95.47;100511.69;4995227;28;20540;-50
2023/10/17 00:59:57;;;;;;;0.30;0.20;;;;;;;6.31;95.44;100509.94;4994683;28;20456;-51
2023/10/17 01:02:29;;;;;;;0.30;0.20;;;;;;;6.22;95.36;100510.88;4994909;28;20816;-51
2023/10/17 01:04:59;;;;;;;0.30;0.20;;;;;;;5.99;95.38;100510.16;4994852;28;20978;-51
2023/10/17 01:07:29;;;;;;;0.30;0.20;;;;;;;6.17;96.22;100512.69;4995234;28;20442;-51
2023/10/17 01:10:00;;;;;;;0.30;0.20;;;;;;;6.19;95.30;100514.41;4994280;28;20947;-50
2023/10/17 01:12:28;;;;;;;0.30;0.20;;;;;;;6.14;95.69;100510.91;4994666;28;20493;-51
2023/10/17 01:14:55;;;;;;;0.30;0.20;;;;;;;6.04;96.62;100506.63;4994549;28;20461;-51
2023/10/17 01:17:25;;;;;;;0.30;0.20;;;;;;;6.06;96.48;100510.09;4994951;28;20453;-51
2023/10/17 01:19:53;;;;;;;0.30;0.20;;;;;;;5.93;96.37;100503.16;4992483;28;20508;-50
2023/10/17 01:22:20;;;;;;;0.30;0.20;;;;;;;5.93;97.30;100498.75;4986414;28;20561;-51
2023/10/17 01:24:47;;;;;;;0.30;0.20;;;;;;;5.99;96.36;100489.91;4994445;28;20457;-51
2023/10/17 01:27:13;;;;;;;0.30;0.20;;;;;;;6.00;96.12;100491.66;4994599;28;20453;-51
2023/10/17 01:29:43;;;;;;;0.30;0.20;;;;;;;5.90;95.22;100495.28;4994559;28;20534;-50
2023/10/17 01:32:10;;;;;;;0.30;0.20;;;;;;;5.59;95.81;100505.94;4994375;28;21021;-51
2023/10/17 01:34:36;;;;;;;0.30;0.20;;;;;;;5.68;96.17;100515.56;4994375;28;20554;-51
2023/10/17 01:37:03;;;;;;;0.30;0.20;;;;;;;5.56;96.72;100513.00;4994318;28;20974;-50
2023/10/17 01:39:29;;;;;;;0.30;0.20;;;;;;;5.57;97.68;100522.66;4994173;28;20457;-51
2023/10/17 01:41:56;;;;;;;0.30;0.20;;;;;;;5.64;95.98;100519.13;4994079;28;20827;-51
2023/10/17 01:44:24;;;;;;;0.30;0.20;;;;;;;5.67;95.82;100519.09;4994031;28;20806;-51
2023/10/17 01:46:51;;;;;;;0.30;0.20;;;;;;;5.59;96.17;100523.50;4994496;28;20472;-51
2023/10/17 01:49:19;;;;;;;0.30;0.20;;;;;;;5.60;96.11;100533.19;4994259;28;20541;-51
2023/10/17 01:51:48;;;;;;;0.30;0.20;;;;;;;5.53;96.50;100532.34;4989561;28;20974;-51
2023/10/17 01:54:17;;;;;;;0.30;0.20;;;;;;;5.47;95.83;100540.25;4993904;28;20533;-51
2023/10/17 01:56:49;;;;;;;0.30;0.20;;;;;;;5.48;96.97;100528.88;4993792;28;20457;-51
2023/10/17 01:59:28;;;;;;;0.30;0.20;;;;;;;5.21;95.81;100521.06;4994151;28;20448;-51
2023/10/17 02:01:57;;;;;;;0.30;0.20;;;;;;;5.23;96.90;100514.88;4993913;28;20465;-50
2023/10/17 02:04:24;;;;;;;0.30;0.20;;;;;;;5.17;96.48;100492.94;4993830;28;20442;-50
2023/10/17 02:06:52;;;;;;;0.30;0.20;;;;;;;5.36;96.08;100484.09;4994046;28;20457;-51
2023/10/17 02:09:24;;;;;;;0.30;0.20;;;;;;;5.17;95.60;100483.28;4993550;28;20481;-50
2023/10/17 02:11:53;;;;;;;0.30;0.20;;;;;;;5.02;96.91;100470.16;4993687;28;20469;-50
2023/10/17 02:14:20;;;;;;;0.30;0.20;;;;;;;5.06;96.16;100469.25;4993771;28;20495;-50
2023/10/17 02:16:48;;;;;;;0.30;0.20;;;;;;;4.99;96.25;100470.16;4993723;28;20535;-50
2023/10/17 02:19:16;;;;;;;0.30;0.20;;;;;;;4.80;97.45;100477.25;4993557;28;20486;-50
2023/10/17 02:21:49;;;;;;;0.30;0.20;;;;;;;5.02;97.87;100485.97;4972953;28;20495;-50
2023/10/17 02:24:19;;;;;;;0.30;0.20;;;;;;;5.11;98.11;100490.34;4993528;28;20441;-50
2023/10/17 02:27:29;;;;;;;0.30;0.20;;;;;;;5.29;97.36;100490.25;4993544;28;20445;-50
2023/10/17 02:29:39;;;;;;;0.30;0.20;;;;;;;5.30;98.00;100498.16;4966362;28;20465;-50
2023/10/17 02:32:12;;;;;;;0.30;0.20;;;;;;;5.34;97.89;100504.28;4975926;28;20477;-50
2023/10/17 02:34:39;;;;;;;0.30;0.20;;;;;;;5.51;96.89;100504.25;4993346;28;20861;-50
2023/10/17 02:37:10;;;;;;;0.30;0.20;;;;;;;5.38;97.91;100505.16;4993394;28;20464;-51
2023/10/17 02:39:38;;;;;;;0.30;0.20;;;;;;;5.42;96.52;100502.50;4980859;28;20449;-50
2023/10/17 02:42:08;;;;;;;0.30;0.20;;;;;;;5.52;97.14;100498.09;4992951;28;20481;-50
2023/10/17 02:44:39;;;;;;;0.30;0.20;;;;;;;5.49;97.24;100506.00;4993065;28;20446;-51
2023/10/17 02:47:11;;;;;;;0.30;0.20;;;;;;;5.39;97.15;100499.88;4993079;28;20446;-51
2023/10/17 02:49:38;;;;;;;0.30;0.20;;;;;;;5.61;96.66;100496.25;4993152;28;20449;-50
2023/10/17 02:52:05;;;;;;;0.30;0.20;;;;;;;5.62;96.84;100487.47;4992795;28;21050;-51
2023/10/17 02:54:55;;;;;;;0.30;0.20;;;;;;;5.61;95.83;100482.19;4993489;28;20489;-51
2023/10/17 02:57:23;;;;;;;0.30;0.20;;;;;;;5.58;96.70;100485.72;4993071;28;20889;-51
2023/10/17 02:59:51;;;;;;;0.30;0.20;;;;;;;5.61;95.89;100477.78;4992046;28;20954;-51
2023/10/17 03:02:36;;;;;;;0.30;0.20;;;;;;;5.27;97.35;100469.19;4980455;28;20477;-51
2023/10/17 03:05:11;;;;;;;0.30;0.20;;;;;;;5.40;98.38;100475.28;4992848;28;20531;-51
2023/10/17 03:07:39;;;;;;;0.30;0.20;;;;;;;5.41;98.62;100471.75;4992821;28;20536;-51
2023/10/17 03:10:05;;;;;;;0.30;0.20;;;;;;;5.64;98.05;100469.00;4992694;28;20911;-51
2023/10/17 03:12:40;;;;;;;0.30;0.20;;;;;;;5.94;99.36;100466.22;4992967;28;20469;-50
2023/10/17 03:17:39;;;;;;;0.30;0.20;;;;;;;6.11;98.77;100463.44;4992752;28;20503;-50
2023/10/17 03:20:10;;;;;;;0.30;0.20;;;;;;;6.18;98.61;100448.44;4992923;28;20449;-50
2023/10/17 03:22:37;;;;;;;0.30;0.20;;;;;;;6.15;98.89;100451.97;4992841;28;20470;-50
2023/10/17 03:25:25;;;;;;;0.30;0.20;;;;;;;6.11;98.74;100439.69;4992992;28;20489;-50
2023/10/17 03:27:54;;;;;;;0.30;0.20;;;;;;;6.15;98.70;100436.13;4992597;28;20476;-51
2023/10/17 03:30:21;;;;;;;0.30;0.20;;;;;;;6.24;98.81;100446.63;4992608;28;20537;-50
2023/10/17 03:35:29;;;;;;;0.30;0.20;;;;;;;6.40;97.55;100451.75;4996889;28;20472;-51
2023/10/17 03:37:55;;;;;;;0.30;0.20;;;;;;;6.36;97.60;100460.63;4996621;28;20901;-51
2023/10/17 03:40:30;;;;;;;0.30;0.20;;;;;;;6.27;97.92;100456.28;4996457;28;20550;-50
2023/10/17 03:43:04;;;;;;;0.30;0.20;;;;;;;6.40;97.67;100452.63;4996562;28;21057;-48
2023/10/17 03:45:43;;;;;;;0.30;0.20;;;;;;;6.37;98.28;100457.06;4996357;28;20943;-48
2023/10/17 03:48:16;;;;;;;0.30;0.20;;;;;;;6.50;96.87;100456.94;4996884;28;20449;-48
2023/10/17 03:53:15;;;;;;;0.30;0.20;;;;;;;6.65;95.99;100458.56;4996094;28;20507;-49
2023/10/17 03:55:49;;;;;;;0.30;0.20;;;;;;;6.80;97.19;100449.59;4996227;28;20487;-48
2023/10/17 04:00:46;;;;;;;0.30;0.20;;;;;;;6.87;95.85;100448.66;4996170;28;20917;-49
2023/10/17 04:03:21;;;;;;;0.30;0.20;;;;;;;6.93;95.33;100453.88;4995976;28;20465;-49
2023/10/17 04:05:49;;;;;;;0.30;0.20;;;;;;;6.83;96.46;100452.22;4995975;28;20453;-48
2023/10/17 04:08:19;;;;;;;0.30;0.20;;;;;;;6.88;95.50;100462.75;4996051;28;20454;-48
2023/10/17 04:13:37;;;;;;;0.30;0.20;;;;;;;6.89;95.61;100477.72;4996181;28;20841;-49
2023/10/17 04:16:14;;;;;;;0.30;0.20;;;;;;;6.74;95.44;100469.06;4995741;28;20500;-49
2023/10/17 04:18:41;;;;;;;0.30;0.20;;;;;;;6.67;95.22;100462.06;4996083;28;20477;-49
2023/10/17 04:24:09;;;;;;;0.30;0.20;;;;;;;6.49;95.89;100472.81;4987020;28;20449;-49
2023/10/17 04:26:35;;;;;;;0.30;0.20;;;;;;;6.60;95.95;100481.53;4995475;28;20456;-49
2023/10/17 04:29:21;;;;;;;0.30;0.20;;;;;;;6.57;96.54;100489.44;4995485;28;20540;-49
2023/10/17 04:31:55;;;;;;;0.30;0.20;;;;;;;6.63;96.13;100488.53;4984947;28;20481;-49
2023/10/17 04:34:22;;;;;;;0.30;0.20;;;;;;;6.68;95.83;100498.16;4995328;28;20489;-49
2023/10/17 04:36:51;;;;;;;0.30;0.13;;;;;;;6.66;95.52;100492.00;4995550;28;20950;-50
2023/10/17 04:44:21;;;;;;;0.30;0.20;;;;;;;6.49;96.11;100497.44;4993995;28;20942;-51
2023/10/17 04:46:51;;;;;;;0.30;0.20;;;;;;;6.34;95.79;100494.94;4995210;28;20504;-49
2023/10/17 04:49:24;;;;;;;0.30;0.20;;;;;;;6.39;96.43;100498.41;4995187;28;20500;-50
2023/10/17 04:52:08;;;;;;;0.30;0.20;;;;;;;6.34;96.74;100499.34;4994785;28;20461;-49
2023/10/17 04:57:05;;;;;;;0.30;0.20;;;;;;;6.08;96.16;100481.94;4995150;28;20488;-50
2023/10/17 04:59:41;;;;;;;0.30;0.20;;;;;;;6.12;96.25;100474.88;4993997;28;20496;-49
2023/10/17 05:07:34;;;;;;;0.30;0.20;;;;;;;6.17;96.32;100463.41;4966676;28;20453;-49
2023/10/17 06:19:21;;;;;;;0.30;0.20;;;;;;;6.64;95.58;100462.09;4993572;28;20449;-49
2023/10/17 06:26:02;;;;;;;0.30;0.20;;;;;;;6.57;95.78;100457.75;4993586;28;20449;-49
2023/10/17 06:30:26;;;;;;;0.30;0.20;;;;;;;6.65;95.82;100448.00;4982781;28;20446;-49
2023/10/17 06:33:05;;;;;;;0.30;0.20;;;;;;;6.82;96.32;100461.91;4993082;28;20552;-49
2023/10/17 06:35:33;;;;;;;0.30;0.20;;;;;;;6.90;95.10;100458.31;4993204;28;20489;-49
2023/10/17 06:38:00;;;;;;;0.30;0.20;;;;;;;7.10;94.85;100466.88;4993119;28;20461;-49
2023/10/17 06:40:37;;;;;;;0.30;0.20;;;;;;;7.17;94.08;100481.78;4993206;28;20532;-49
2023/10/17 06:43:13;;;;;;;0.30;0.20;;;;;;;7.29;93.75;100489.59;4992828;28;20943;-49
2023/10/17 06:46:28;;;;;;;0.30;0.20;;;;;;;7.28;93.87;100479.03;4990773;28;20938;-49
2023/10/17 06:48:57;;;;;;;0.30;0.20;;;;;;;7.12;94.53;100467.72;4992847;28;20540;-49
2023/10/17 06:51:30;;;;;;;0.30;0.20;;;;;;;6.99;94.94;100464.38;4989314;28;20829;-49
2023/10/17 06:54:05;;;;;;;0.30;0.20;;;;;;;6.88;95.69;100460.97;4993078;28;20517;-50
2023/10/17 06:56:38;;;;;;;2.63;2.10;;;;;;;6.97;95.10;100460.88;4992927;28;20523;-49
2023/10/17 06:59:14;;;;;;;0.30;0.30;;;;;;;6.98;95.49;100451.16;4981597;28;20569;-50
2023/10/17 07:01:41;;;;;;;0.30;0.20;;;;;;;6.93;95.37;100453.00;4992925;28;20891;-49
2023/10/17 07:04:11;;;;;;;0.30;0.20;;;;;;;6.98;95.11;100459.09;4993147;28;20446;-49
2023/10/17 07:06:38;;;;;;;0.30;0.20;;;;;;;7.06;95.78;100478.41;4992629;28;20454;-49
2023/10/17 07:09:06;;;;;;;0.30;0.20;;;;;;;7.08;95.45;100479.25;4992985;28;20548;-49
2023/10/17 07:11:36;;;;;;;0.30;0.20;;;;;;;7.16;93.80;100482.69;4993010;28;20457;-50
2023/10/17 07:22:11;;;;;;;0.30;0.20;;;;;;;7.43;92.65;100486.78;4991320;28;21030;-49
2023/10/17 07:24:42;;;;;;;0.30;0.20;;;;;;;7.39;93.28;100470.03;4993195;28;20454;-49
2023/10/17 07:27:18;;;;;;;0.30;0.20;;;;;;;7.28;93.73;100471.09;4993374;28;20548;-50
2023/10/17 07:29:58;;;;;;;0.30;0.20;;;;;;;7.32;92.92;100467.50;4993496;28;20450;-49
2023/10/17 07:32:44;;;;;;;0.30;0.20;;;;;;;7.33;93.72;100472.78;4993062;28;20556;-49
2023/10/17 07:35:16;;;;;;;0.30;0.20;;;;;;;7.31;93.62;100464.00;4992713;28;20998;-50
2023/10/17 07:37:54;;;;;;;0.30;0.20;;;;;;;7.31;93.75;100456.06;4992895;28;20897;-49
2023/10/17 07:43:21;;;;;;;0.30;0.20;;;;;;;7.28;93.89;100452.59;4977999;28;20485;-49
2023/10/17 07:45:55;;;;;;;0.30;0.20;;;;;;;7.29;93.27;100462.28;4975389;28;20737;-48
2023/10/17 07:48:23;;;;;;;0.30;0.20;;;;;;;7.46;93.11;100470.84;4992824;28;20495;-51
2023/10/17 07:50:51;;;;;;;0.30;0.20;;;;;;;7.50;92.43;100469.03;4983122;28;20461;-49
2023/10/17 07:53:21;;;;;;;0.30;0.20;;;;;;;7.58;92.85;100459.25;4992232;28;21070;-50
2023/10/17 07:55:52;;;;;;;0.30;0.20;;;;;;;7.52;91.89;100464.59;4992684;28;20493;-50
2023/10/17 07:58:38;;;;;;;0.30;0.20;;;;;;;7.47;92.00;100463.78;4992319;28;20507;-49
2023/10/17 08:01:08;;;;;;;0.30;0.20;;;;;;;7.52;92.38;100464.59;4992958;28;20455;-49
2023/10/17 08:03:40;;;;;;;0.30;0.20;;;;;;;7.68;91.67;100476.75;4992508;28;20810;-49
2023/10/17 08:06:12;;;;;;;0.30;0.20;;;;;;;7.66;91.83;100478.50;4992838;28;20478;-49
2023/10/17 08:08:44;;;;;;;0.30;0.20;;;;;;;7.65;91.64;100477.63;4992349;28;20489;-50
2023/10/17 08:14:09;;;;;;;0.30;0.20;;;;;;;7.75;92.13;100466.94;4987614;28;20457;-49
2023/10/17 08:16:39;;;;;;;0.30;0.20;;;;;;;7.86;91.21;100462.38;4992334;28;20461;-49
2023/10/17 08:19:12;;;;;;;0.30;0.20;;;;;;;7.85;91.21;100464.16;4993354;28;20445;-49
2023/10/17 08:22:09;;;;;;;0.30;0.20;;;;;;;8.04;90.19;100467.38;4996005;28;20959;-49
2023/10/17 08:27:47;;;;;;;0.97;0.97;;;;;;;7.97;89.75;100468.38;4996075;28;20453;-49
2023/10/17 08:30:04;;;;;;;0.30;0.20;;;;;;;8.06;90.08;100467.34;4979153;28;20465;-49
2023/10/17 08:32:39;;;;;;;0.30;0.20;;;;;;;8.20;89.15;100473.31;4995640;28;20914;-49
2023/10/17 08:35:36;;;;;;;0.30;0.20;;;;;;;8.10;89.14;100462.00;4995824;28;20539;-50
2023/10/17 08:38:03;;;;;;;0.30;0.20;;;;;;;8.42;88.81;100469.44;4995533;28;20931;-51
2023/10/17 08:40:32;;;;;;;0.30;0.20;;;;;;;8.40;88.57;100465.09;4995191;28;20890;-50
2023/10/17 08:43:15;;;;;;;0.30;0.20;;;;;;;8.29;87.96;100462.56;4994981;28;20821;-50
2023/10/17 08:45:46;;;;;;;0.30;0.20;;;;;;;8.30;88.09;100466.97;4995645;28;20453;-51
2023/10/17 08:48:12;;;;;;;0.30;0.20;;;;;;;8.31;88.13;100458.13;4995876;28;20478;-50
2023/10/17 08:50:39;;;;;;;0.30;0.20;;;;;;;8.26;88.29;100470.56;4992164;28;20535;-51
2023/10/17 08:53:13;;;;;;;0.30;0.20;;;;;;;8.41;88.62;100467.69;4995099;28;20477;-51
2023/10/17 08:55:41;;;;;;;0.30;0.20;;;;;;;8.39;87.93;100465.97;4995359;28;20497;-50
2023/10/17 08:58:08;;;;;;;0.30;0.20;;;;;;;8.41;87.84;100466.81;4995331;28;20536;-50
2023/10/17 09:01:20;;;;;;;0.30;0.20;;;;;;;8.58;87.61;100472.69;4995155;28;20515;-51
2023/10/17 09:03:36;;;;;;;0.30;0.20;;;;;;;8.56;87.22;100477.16;4982242;28;20477;-51
2023/10/17 09:11:09;;;;;;;0.30;0.20;;;;;;;8.57;87.40;100486.84;4994937;28;20831;-51
2023/10/17 09:16:13;;;;;;;0.30;0.20;;;;;;;8.71;86.63;100484.84;4994358;28;20485;-50
2023/10/17 09:18:54;;;;;;;0.30;0.20;;;;;;;8.85;86.34;100487.22;4994866;28;20458;-51
2023/10/17 09:21:20;;;;;;;0.30;0.20;;;;;;;8.84;85.92;100469.59;4983126;28;20457;-51
2023/10/17 09:23:47;;;;;;;1.97;1.87;;;;;;;8.96;85.78;100468.47;4994617;28;20537;-50
2023/10/17 09:26:20;;;;;;;0.30;0.20;;;;;;;8.82;85.67;100480.22;4994378;28;21190;-50
2023/10/17 09:28:48;;;;;;;0.30;0.20;;;;;;;8.67;85.97;100485.81;4994355;28;20449;-50
2023/10/17 09:31:16;;;;;;;0.63;0.63;;;;;;;8.82;86.23;100471.41;4993980;28;20477;-51
2023/10/17 09:33:44;;;;;;;0.30;0.20;;;;;;;8.73;86.14;100461.81;4994490;28;20457;-50
2023/10/17 09:36:12;;;;;;;0.30;0.20;;;;;;;8.85;85.57;100463.38;4994344;28;20500;-50
2023/10/17 09:38:45;;;;;;;0.30;0.20;;;;;;;8.82;85.44;100471.41;4994449;28;20453;-51
2023/10/17 09:41:17;;;;;;;0.30;0.20;;;;;;;8.71;84.63;100492.78;4994258;28;20457;-51
2023/10/17 09:43:49;;;;;;;0.30;0.20;;;;;;;8.78;84.75;100480.31;4994588;28;20457;-51
2023/10/17 09:46:18;;;;;;;0.30;0.20;;;;;;;8.91;84.86;100473.88;4964706;28;20446;-50
2023/10/17 09:48:46;;;;;;;0.30;0.20;;;;;;;8.97;85.65;100488.78;4994283;28;20876;-51
2023/10/17 09:51:27;;;;;;;0.30;0.20;;;;;;;9.20;84.32;100495.41;4988848;28;20537;-49
2023/10/17 09:53:55;;;;;;;0.30;0.20;;;;;;;8.93;84.36;100487.97;4994229;28;20446;-49
2023/10/17 09:56:27;;;;;;;0.30;0.20;;;;;;;8.90;84.46;100482.72;4994301;28;20497;-49
2023/10/17 09:58:57;;;;;;;0.30;0.20;;;;;;;8.86;84.96;100468.66;4993967;28;20441;-49
2023/10/17 10:01:26;;;;;;;0.30;0.20;;;;;;;8.99;85.03;100468.41;4994104;28;20540;-49
2023/10/17 10:04:02;;;;;;;0.30;0.20;;;;;;;8.97;84.52;100484.34;4981545;28;20943;-49
2023/10/17 10:06:30;;;;;;;0.30;0.20;;;;;;;8.96;84.52;100471.13;4993967;28;20446;-49
2023/10/17 10:09:06;;;;;;;0.30;0.20;;;;;;;8.94;84.63;100468.50;4993888;28;20449;-49
2023/10/17 10:11:48;;;;;;;0.30;0.20;;;;;;;9.03;84.39;100463.00;4993520;28;20457;-49
2023/10/17 10:14:16;;;;;;;0.30;0.20;;;;;;;8.99;84.75;100464.00;4994237;28;20449;-49
2023/10/17 10:16:50;;;;;;;0.40;0.37;;;;;;;9.19;83.99;100471.56;4993349;28;20941;-53
2023/10/17 10:19:21;;;;;;;1.03;0.97;;;;;;;9.03;84.11;100475.41;4993715;28;20508;-53
2023/10/17 10:21:54;;;;;;;0.30;0.20;;;;;;;9.02;84.08;100476.31;4982821;28;20469;-51
2023/10/17 10:24:29;;;;;;;0.30;0.20;;;;;;;9.04;83.89;100467.41;4993615;28;20453;-49
2023/10/17 10:27:32;;;;;;;0.30;0.20;;;;;;;9.00;83.69;100475.47;4993426;28;20453;-49
2023/10/17 10:30:38;;;;;;;0.30;0.20;;;;;;;9.14;84.18;100461.03;4981796;28;20532;-49
2023/10/17 10:33:04;;;;;;;0.30;0.20;;;;;;;9.03;83.92;100454.19;4980413;28;20471;-49
2023/10/17 10:35:32;;;;;;;0.30;0.20;;;;;;;9.07;84.66;100462.06;4993245;28;20695;-49
2023/10/17 10:37:59;;;;;;;0.30;0.20;;;;;;;9.26;84.49;100448.44;4976307;28;20561;-51
2023/10/17 10:40:30;;;;;;;0.30;0.20;;;;;;;9.47;83.97;100443.56;4993447;28;20453;-49
2023/10/17 10:43:01;;;;;;;0.30;0.20;;;;;;;9.38;83.51;100437.56;4992513;28;20476;-52
2023/10/17 10:45:35;;;;;;;0.30;0.20;;;;;;;9.31;84.17;100430.63;4993377;28;20453;-49
2023/10/17 10:48:14;;;;;;;0.30;0.20;;;;;;;9.69;83.50;100437.75;4976404;28;20478;-50
2023/10/17 10:50:46;;;;;;;0.30;0.20;;;;;;;9.62;83.02;100428.22;4993121;28;20500;-49
2023/10/17 10:53:29;;;;;;;0.30;0.20;;;;;;;9.96;82.82;100415.00;4993301;28;20549;-49
2023/10/17 10:56:09;;;;;;;0.30;0.20;;;;;;;9.83;82.52;100397.63;4981487;28;20996;-50
2023/10/17 10:58:47;;;;;;;0.30;0.20;;;;;;;9.90;81.56;100404.56;4993120;28;20441;-49
2023/10/17 11:01:15;;;;;;;0.30;0.20;;;;;;;10.12;81.56;100413.72;4992889;28;20918;-49
2023/10/17 11:03:43;;;;;;;0.30;0.20;;;;;;;10.10;81.16;100416.41;4992840;28;20541;-49
2023/10/17 11:06:10;;;;;;;0.30;0.20;;;;;;;10.33;80.77;100412.34;4992832;28;20449;-49
2023/10/17 11:08:43;;;;;;;0.30;0.20;;;;;;;10.44;79.63;100399.66;4992682;28;20456;-49
2023/10/17 11:11:14;;;;;;;0.30;0.20;;;;;;;10.26;79.53;100401.00;4993121;28;20453;-49
2023/10/17 11:13:47;;;;;;;0.30;0.20;;;;;;;10.57;79.28;100400.22;4993225;28;20488;-49
2023/10/17 11:16:24;;;;;;;0.30;0.20;;;;;;;10.51;78.04;100400.38;4992704;28;20496;-49
2023/10/17 11:18:51;;;;;;;0.30;0.20;;;;;;;10.44;77.69;100394.34;4992842;28;20480;-50
2023/10/17 11:21:20;;;;;;;0.30;0.20;;;;;;;10.32;78.46;100394.66;4981687;28;20818;-49
2023/10/17 11:24:02;;;;;;;0.30;0.20;;;;;;;10.28;77.78;100396.53;4993098;28;20454;-49
2023/10/17 11:26:34;;;;;;;0.30;0.20;;;;;;;10.29;77.49;100408.91;4992653;28;20820;-49
2023/10/17 11:29:04;;;;;;;0.30;0.20;;;;;;;10.27;78.06;100389.44;4992801;28;20449;-50
2023/10/17 11:31:31;;;;;;;0.30;0.20;;;;;;;10.34;77.69;100384.88;4980641;28;20454;-51
2023/10/17 11:34:22;;;;;;;0.30;0.20;;;;;;;10.48;77.13;100390.69;4992531;28;20948;-48
2023/10/17 11:36:51;;;;;;;0.30;0.20;;;;;;;10.26;77.27;100395.69;4992781;28;20496;-49
2023/10/17 11:39:18;;;;;;;0.30;0.20;;;;;;;10.45;77.43;100384.59;4992660;28;20548;-49
2023/10/17 11:41:52;;;;;;;0.30;0.20;;;;;;;10.28;77.33;100377.03;4992439;28;20469;-49
2023/10/17 11:44:23;;;;;;;0.30;0.20;;;;;;;10.29;77.51;100377.03;4992573;28;20481;-49
2023/10/17 11:47:03;;;;;;;0.30;0.20;;;;;;;10.35;78.31;100363.56;4992571;28;20997;-49
2023/10/17 11:49:33;;;;;;;0.30;0.20;;;;;;;10.36;78.06;100369.75;4981477;28;20461;-51
2023/10/17 11:52:09;;;;;;;0.30;0.20;;;;;;;10.27;77.55;100360.22;4987938;28;20469;-50
2023/10/17 11:55:00;;;;;;;0.30;0.20;;;;;;;10.07;77.95;100357.19;4995541;28;20468;-49
2023/10/17 11:57:29;;;;;;;0.30;0.20;;;;;;;10.22;78.21;100351.53;4996283;28;20453;-49
2023/10/17 12:00:19;;;;;;;0.30;0.20;;;;;;;10.07;78.13;100349.22;4995541;28;20548;-49
2023/10/17 12:02:47;;;;;;;0.30;0.20;;;;;;;10.24;78.05;100344.38;4996003;28;20493;-49
2023/10/17 12:05:18;;;;;;;0.30;0.20;;;;;;;10.22;77.81;100348.88;4995929;28;20484;-50
2023/10/17 12:07:57;;;;;;;0.30;0.20;;;;;;;10.11;77.95;100350.88;4996185;28;20548;-50
2023/10/17 12:10:28;;;;;;;0.30;0.20;;;;;;;10.07;78.14;100360.72;4996024;28;20460;-49
2023/10/17 12:12:59;;;;;;;0.30;0.20;;;;;;;10.17;78.05;100344.56;4995852;28;20465;-50
2023/10/17 12:15:26;;;;;;;0.30;0.20;;;;;;;10.04;78.65;100358.16;4996137;28;20489;-49
2023/10/17 12:17:53;;;;;;;0.30;0.20;;;;;;;10.06;78.63;100353.69;4996024;28;20537;-49
2023/10/17 12:20:25;;;;;;;0.30;0.20;;;;;;;10.02;78.50;100359.13;4995781;28;20935;-49
2023/10/17 12:22:56;;;;;;;0.30;0.20;;;;;;;10.24;78.38;100360.31;4995782;28;20499;-50
2023/10/17 12:25:25;;;;;;;0.30;0.20;;;;;;;10.57;77.80;100360.34;4995908;28;20446;-49
2023/10/17 12:27:56;;;;;;;0.30;0.20;;;;;;;10.74;77.43;100363.41;4995459;28;20536;-50
2023/10/17 12:30:26;;;;;;;0.30;0.20;;;;;;;10.70;77.46;100352.91;4995484;28;20446;-50
2023/10/17 12:32:57;;;;;;;0.30;0.20;;;;;;;10.51;77.50;100348.09;4995817;28;20829;-49
2023/10/17 12:35:27;;;;;;;0.30;0.20;;;;;;;10.70;77.02;100350.25;4995938;28;20580;-49
2023/10/17 12:37:57;;;;;;;0.30;0.20;;;;;;;10.91;76.14;100342.50;4978158;28;20955;-49
2023/10/17 12:40:24;;;;;;;0.30;0.20;;;;;;;10.69;76.00;100341.41;4995336;28;20507;-49
2023/10/17 12:42:53;;;;;;;0.30;0.20;;;;;;;11.01;76.11;100326.28;4983450;28;20503;-50
2023/10/17 12:45:19;;;;;;;0.30;0.20;;;;;;;11.13;76.06;100331.25;4995497;28;20500;-50
2023/10/17 12:47:47;;;;;;;0.30;0.20;;;;;;;11.23;75.26;100330.91;4989072;28;20457;-49
2023/10/17 12:50:15;;;;;;;0.30;0.20;;;;;;;11.04;75.56;100335.06;4985260;28;20545;-49
2023/10/17 12:52:45;;;;;;;0.30;0.20;;;;;;;11.23;75.34;100317.59;4995125;28;20962;-49
2023/10/17 12:55:12;;;;;;;0.30;0.20;;;;;;;11.19;74.41;100312.44;4995388;28;20839;-50
2023/10/17 12:57:39;;;;;;;0.30;0.20;;;;;;;11.32;74.02;100304.94;4995321;28;20449;-50
2023/10/17 13:00:09;;;;;;;0.30;0.20;;;;;;;11.23;74.74;100314.94;4995505;28;20452;-50
2023/10/17 13:02:40;;;;;;;0.30;0.20;;;;;;;11.36;74.35;100311.91;4995055;28;20470;-50
2023/10/17 13:05:10;;;;;;;0.30;0.20;;;;;;;11.39;74.11;100309.16;4994087;28;20445;-50
2023/10/17 13:07:38;;;;;;;0.30;0.20;;;;;;;11.53;73.18;100310.47;4995069;28;20474;-49
2023/10/17 13:10:08;;;;;;;0.30;0.20;;;;;;;11.73;73.01;100316.91;4994992;28;20507;-50
2023/10/17 13:12:41;;;;;;;0.30;0.20;;;;;;;11.80;72.40;100303.41;4994791;28;20470;-50
2023/10/17 13:15:14;;;;;;;0.30;0.20;;;;;;;11.68;71.71;100310.88;4994840;28;20456;-50
2023/10/17 13:17:43;;;;;;;0.30;0.20;;;;;;;11.97;71.37;100307.28;4994554;28;20919;-51
2023/10/17 13:20:10;;;;;;;0.30;0.20;;;;;;;11.86;71.56;100291.66;4990085;28;20459;-50
2023/10/17 13:22:51;;;;;;;0.30;0.20;;;;;;;11.96;71.85;100305.53;4990681;28;20473;-50
2023/10/17 13:25:18;;;;;;;0.30;0.20;;;;;;;11.84;72.47;100297.03;4994849;28;20454;-49
2023/10/17 13:27:45;;;;;;;0.30;0.20;;;;;;;11.67;71.87;100293.16;4994463;28;20457;-49
2023/10/17 13:30:12;;;;;;;0.30;0.20;;;;;;;12.01;71.77;100282.28;4994466;28;20449;-50
2023/10/17 13:32:39;;;;;;;0.30;0.20;;;;;;;12.01;71.14;100277.81;4994649;28;20473;-49
2023/10/17 13:35:06;;;;;;;0.30;0.20;;;;;;;12.18;71.37;100279.00;4994454;28;20453;-49
2023/10/17 13:37:34;;;;;;;0.30;0.20;;;;;;;12.24;71.22;100281.47;4994090;28;20584;-50
2023/10/17 13:40:01;;;;;;;0.30;0.20;;;;;;;12.61;69.98;100279.22;4994501;28;20536;-50
2023/10/17 13:42:28;;;;;;;0.30;0.20;;;;;;;12.52;69.04;100281.34;4994041;28;21005;-50
2023/10/17 13:44:54;;;;;;;0.30;0.20;;;;;;;12.26;70.28;100282.28;4994214;28;20824;-50
2023/10/17 13:47:21;;;;;;;0.30;0.20;;;;;;;12.33;70.19;100283.78;4994289;28;20884;-49
2023/10/17 13:49:47;;;;;;;0.30;0.20;;;;;;;12.29;70.33;100280.38;4994352;28;20453;-50
2023/10/17 13:52:17;;;;;;;0.30;0.20;;;;;;;12.40;68.63;100270.19;4993990;28;20528;-49
2023/10/17 13:54:44;;;;;;;0.30;0.20;;;;;;;12.44;69.33;100273.63;4994065;28;20841;-49
2023/10/17 13:57:12;;;;;;;0.30;0.20;;;;;;;12.33;69.02;100270.47;4993798;28;20493;-52
2023/10/17 13:59:39;;;;;;;0.30;0.20;;;;;;;12.28;68.42;100269.78;4993102;28;20476;-49
2023/10/17 14:02:06;;;;;;;0.30;0.20;;;;;;;12.46;67.47;100269.09;4993937;28;20473;-50
2023/10/17 14:04:34;;;;;;;0.30;0.20;;;;;;;12.34;67.46;100275.78;4993926;28;20459;-50
2023/10/17 14:07:01;;;;;;;0.30;0.20;;;;;;;12.36;67.39;100271.25;4993566;28;20512;-50
2023/10/17 14:09:29;;;;;;;0.30;0.20;;;;;;;12.45;67.25;100264.69;4993884;28;20456;-50